sensor_id;sensor_type;location;lat;lon;timestamp;P1;durP1;ratioP1;P2;durP2;ratioP2
19653;SDS011;9975;48.046;7.804;2022-07-23T02:04:09;10.97;;;7.57;;
19653;SDS011;9975;48.046;7.804;2022-07-23T02:06:35;8.37;;;6.97;;
19653;SDS011;9975;48.046;7.804;2022-07-23T02:09:01;7.50;;;6.70;;
19653;SDS011;9975;48.046;7.804;2022-07-23T02:11:26;9.57;;;7.40;;
19653;SDS011;9975;48.046;7.804;2022-07-23T02:13:52;10.33;;;7.10;;
19653;SDS011;9975;48.046;7.804;2022-07-23T02:16:17;9.50;;;7.53;;
19653;SDS011;9975;48.046;7.804;2022-07-23T02:18:43;8.07;;;7.27;;
19653;SDS011;9975;48.046;7.804;2022-07-23T02:21:09;10.53;;;6.63;;
19653;SDS011;9975;48.046;7.804;2022-07-23T02:23:34;8.87;;;8.00;;
19653;SDS011;9975;48.046;7.804;2022-07-23T02:26:00;10.20;;;6.93;;
19653;SDS011;9975;48.046;7.804;2022-07-23T02:28:26;7.93;;;7.13;;
19653;SDS011;9975;48.046;7.804;2022-07-23T02:30:51;8.57;;;7.70;;
19653;SDS011;9975;48.046;7.804;2022-07-23T02:33:17;10.90;;;7.07;;
19653;SDS011;9975;48.046;7.804;2022-07-23T02:35:42;7.80;;;6.97;;
19653;SDS011;9975;48.046;7.804;2022-07-23T02:38:08;10.90;;;6.33;;
19653;SDS011;9975;48.046;7.804;2022-07-23T02:40:33;7.83;;;7.03;;
19653;SDS011;9975;48.046;7.804;2022-07-23T02:42:59;10.93;;;8.07;;
19653;SDS011;9975;48.046;7.804;2022-07-23T02:45:25;8.80;;;7.90;;
19653;SDS011;9975;48.046;7.804;2022-07-23T02:47:50;9.13;;;7.67;;
19653;SDS011;9975;48.046;7.804;2022-07-23T02:50:16;8.60;;;6.87;;
19653;SDS011;9975;48.046;7.804;2022-07-23T02:52:42;9.27;;;6.83;;
19653;SDS011;9975;48.046;7.804;2022-07-23T02:55:07;9.13;;;8.17;;
19653;SDS011;9975;48.046;7.804;2022-07-23T02:57:33;7.97;;;7.20;;
19653;SDS011;9975;48.046;7.804;2022-07-23T02:59:59;7.77;;;6.97;;
19653;SDS011;9975;48.046;7.804;2022-07-23T03:02:24;8.70;;;7.80;;
19653;SDS011;9975;48.046;7.804;2022-07-23T03:04:50;8.77;;;7.87;;
19653;SDS011;9975;48.046;7.804;2022-07-23T03:07:16;7.10;;;6.50;;
19653;SDS011;9975;48.046;7.804;2022-07-23T03:09:42;7.90;;;7.10;;
19653;SDS011;9975;48.046;7.804;2022-07-23T03:12:08;11.90;;;7.23;;
19653;SDS011;9975;48.046;7.804;2022-07-23T03:14:34;8.80;;;7.30;;
19653;SDS011;9975;48.046;7.804;2022-07-23T03:16:59;9.53;;;8.53;;
19653;SDS011;9975;48.046;7.804;2022-07-23T03:19:25;8.70;;;7.90;;
19653;SDS011;9975;48.046;7.804;2022-07-23T03:21:51;9.37;;;7.37;;
19653;SDS011;9975;48.046;7.804;2022-07-23T03:24:17;8.73;;;7.83;;
19653;SDS011;9975;48.046;7.804;2022-07-23T03:26:43;9.80;;;7.20;;
19653;SDS011;9975;48.046;7.804;2022-07-23T03:29:09;8.73;;;7.67;;
19653;SDS011;9975;48.046;7.804;2022-07-23T03:31:34;9.10;;;8.00;;
19653;SDS011;9975;48.046;7.804;2022-07-23T03:34:00;11.93;;;8.50;;
19653;SDS011;9975;48.046;7.804;2022-07-23T03:36:26;10.53;;;8.70;;
19653;SDS011;9975;48.046;7.804;2022-07-23T03:38:52;9.00;;;8.10;;
19653;SDS011;9975;48.046;7.804;2022-07-23T03:41:18;10.07;;;9.00;;
19653;SDS011;9975;48.046;7.804;2022-07-23T03:43:44;7.83;;;7.13;;
19653;SDS011;9975;48.046;7.804;2022-07-23T03:46:10;9.20;;;8.30;;
19653;SDS011;9975;48.046;7.804;2022-07-23T03:51:40;9.60;;;7.63;;
19653;SDS011;9975;48.046;7.804;2022-07-23T03:54:05;10.00;;;8.50;;
19653;SDS011;9975;48.046;7.804;2022-07-23T03:56:31;8.43;;;7.33;;
19653;SDS011;9975;48.046;7.804;2022-07-23T03:59:04;10.37;;;8.70;;
19653;SDS011;9975;48.046;7.804;2022-07-23T04:01:30;8.17;;;7.30;;
19653;SDS011;9975;48.046;7.804;2022-07-23T04:03:55;9.00;;;7.50;;
19653;SDS011;9975;48.046;7.804;2022-07-23T04:06:21;9.87;;;8.13;;
19653;SDS011;9975;48.046;7.804;2022-07-23T04:08:47;11.77;;;8.90;;
19653;SDS011;9975;48.046;7.804;2022-07-23T04:11:12;10.90;;;8.97;;
19653;SDS011;9975;48.046;7.804;2022-07-23T04:13:38;9.47;;;8.40;;
19653;SDS011;9975;48.046;7.804;2022-07-23T04:16:04;9.20;;;7.90;;
19653;SDS011;9975;48.046;7.804;2022-07-23T04:18:31;10.00;;;8.17;;
19653;SDS011;9975;48.046;7.804;2022-07-23T04:20:57;8.90;;;8.07;;
19653;SDS011;9975;48.046;7.804;2022-07-23T04:23:22;10.00;;;9.07;;
19653;SDS011;9975;48.046;7.804;2022-07-23T04:25:48;11.43;;;8.30;;
19653;SDS011;9975;48.046;7.804;2022-07-23T04:28:14;10.60;;;9.50;;
19653;SDS011;9975;48.046;7.804;2022-07-23T04:30:39;9.40;;;8.50;;
19653;SDS011;9975;48.046;7.804;2022-07-23T04:33:05;10.13;;;7.93;;
19653;SDS011;9975;48.046;7.804;2022-07-23T04:35:32;10.73;;;8.17;;
19653;SDS011;9975;48.046;7.804;2022-07-23T04:38:00;11.00;;;9.30;;
19653;SDS011;9975;48.046;7.804;2022-07-23T04:40:26;11.57;;;9.53;;
19653;SDS011;9975;48.046;7.804;2022-07-23T04:42:52;12.33;;;8.77;;
19653;SDS011;9975;48.046;7.804;2022-07-23T04:45:18;10.47;;;9.37;;
19653;SDS011;9975;48.046;7.804;2022-07-23T04:47:44;11.23;;;8.80;;
19653;SDS011;9975;48.046;7.804;2022-07-23T04:50:09;10.53;;;9.10;;
19653;SDS011;9975;48.046;7.804;2022-07-23T04:52:35;11.00;;;8.80;;
19653;SDS011;9975;48.046;7.804;2022-07-23T04:55:01;11.00;;;8.60;;
19653;SDS011;9975;48.046;7.804;2022-07-23T04:57:27;10.63;;;9.50;;
19653;SDS011;9975;48.046;7.804;2022-07-23T04:59:52;11.67;;;9.37;;
19653;SDS011;9975;48.046;7.804;2022-07-23T05:02:18;10.93;;;9.70;;
19653;SDS011;9975;48.046;7.804;2022-07-23T05:04:44;10.30;;;9.27;;
19653;SDS011;9975;48.046;7.804;2022-07-23T05:07:09;11.70;;;9.57;;
19653;SDS011;9975;48.046;7.804;2022-07-23T05:09:35;10.53;;;9.40;;
19653;SDS011;9975;48.046;7.804;2022-07-23T05:12:01;11.67;;;10.20;;
19653;SDS011;9975;48.046;7.804;2022-07-23T05:14:27;10.87;;;9.50;;
19653;SDS011;9975;48.046;7.804;2022-07-23T05:16:53;10.33;;;9.30;;
19653;SDS011;9975;48.046;7.804;2022-07-23T05:19:18;10.37;;;9.27;;
19653;SDS011;9975;48.046;7.804;2022-07-23T05:21:45;11.70;;;9.97;;
19653;SDS011;9975;48.046;7.804;2022-07-23T05:24:11;9.70;;;8.70;;
19653;SDS011;9975;48.046;7.804;2022-07-23T05:26:36;11.10;;;9.20;;
19653;SDS011;9975;48.046;7.804;2022-07-23T05:29:02;10.67;;;9.53;;
19653;SDS011;9975;48.046;7.804;2022-07-23T05:31:27;10.80;;;9.80;;
19653;SDS011;9975;48.046;7.804;2022-07-23T05:33:53;11.80;;;10.40;;
19653;SDS011;9975;48.046;7.804;2022-07-23T05:36:19;10.17;;;9.17;;
19653;SDS011;9975;48.046;7.804;2022-07-23T05:38:45;10.53;;;9.50;;
19653;SDS011;9975;48.046;7.804;2022-07-23T05:41:10;10.13;;;9.20;;
19653;SDS011;9975;48.046;7.804;2022-07-23T05:43:36;12.40;;;10.00;;
19653;SDS011;9975;48.046;7.804;2022-07-23T05:46:02;10.33;;;9.33;;
19653;SDS011;9975;48.046;7.804;2022-07-23T05:48:27;10.10;;;9.10;;
19653;SDS011;9975;48.046;7.804;2022-07-23T05:50:53;12.60;;;9.40;;
19653;SDS011;9975;48.046;7.804;2022-07-23T05:53:18;12.50;;;9.20;;
19653;SDS011;9975;48.046;7.804;2022-07-23T05:55:44;11.30;;;9.10;;
19653;SDS011;9975;48.046;7.804;2022-07-23T05:58:10;10.57;;;9.43;;
19653;SDS011;9975;48.046;7.804;2022-07-23T06:00:35;9.93;;;8.93;;
19653;SDS011;9975;48.046;7.804;2022-07-23T06:03:01;9.80;;;8.50;;
19653;SDS011;9975;48.046;7.804;2022-07-23T06:05:27;10.43;;;8.83;;
19653;SDS011;9975;48.046;7.804;2022-07-23T06:07:52;9.43;;;8.50;;
19653;SDS011;9975;48.046;7.804;2022-07-23T06:10:19;10.43;;;8.80;;
19653;SDS011;9975;48.046;7.804;2022-07-23T06:12:44;12.50;;;8.57;;
19653;SDS011;9975;48.046;7.804;2022-07-23T06:15:10;10.13;;;9.13;;
19653;SDS011;9975;48.046;7.804;2022-07-23T06:17:36;10.50;;;8.80;;
19653;SDS011;9975;48.046;7.804;2022-07-23T06:20:04;10.13;;;9.03;;
19653;SDS011;9975;48.046;7.804;2022-07-23T06:22:31;10.83;;;8.87;;
19653;SDS011;9975;48.046;7.804;2022-07-23T06:24:57;9.53;;;8.53;;
19653;SDS011;9975;48.046;7.804;2022-07-23T06:27:22;11.03;;;9.30;;
19653;SDS011;9975;48.046;7.804;2022-07-23T06:29:48;8.93;;;8.03;;
19653;SDS011;9975;48.046;7.804;2022-07-23T06:32:13;10.93;;;9.53;;
19653;SDS011;9975;48.046;7.804;2022-07-23T06:34:39;10.33;;;9.30;;
19653;SDS011;9975;48.046;7.804;2022-07-23T06:37:05;9.67;;;8.63;;
19653;SDS011;9975;48.046;7.804;2022-07-23T06:39:30;10.13;;;8.47;;
19653;SDS011;9975;48.046;7.804;2022-07-23T06:41:56;11.17;;;9.00;;
19653;SDS011;9975;48.046;7.804;2022-07-23T06:44:22;13.13;;;10.10;;
19653;SDS011;9975;48.046;7.804;2022-07-23T06:46:48;10.23;;;8.50;;
19653;SDS011;9975;48.046;7.804;2022-07-23T06:49:13;11.70;;;8.80;;
19653;SDS011;9975;48.046;7.804;2022-07-23T06:51:39;9.93;;;8.60;;
19653;SDS011;9975;48.046;7.804;2022-07-23T06:54:04;12.13;;;9.97;;
19653;SDS011;9975;48.046;7.804;2022-07-23T06:56:30;9.43;;;8.53;;
19653;SDS011;9975;48.046;7.804;2022-07-23T06:58:56;10.57;;;9.50;;
19653;SDS011;9975;48.046;7.804;2022-07-23T07:01:21;9.70;;;8.53;;
19653;SDS011;9975;48.046;7.804;2022-07-23T07:03:47;11.20;;;10.00;;
19653;SDS011;9975;48.046;7.804;2022-07-23T07:06:14;12.20;;;9.50;;
19653;SDS011;9975;48.046;7.804;2022-07-23T07:08:40;12.10;;;8.87;;
19653;SDS011;9975;48.046;7.804;2022-07-23T07:11:08;10.67;;;9.30;;
19653;SDS011;9975;48.046;7.804;2022-07-23T07:13:33;12.83;;;9.17;;
19653;SDS011;9975;48.046;7.804;2022-07-23T07:15:59;10.63;;;9.50;;
19653;SDS011;9975;48.046;7.804;2022-07-23T07:18:25;10.90;;;8.77;;
19653;SDS011;9975;48.046;7.804;2022-07-23T07:20:50;9.70;;;8.70;;
19653;SDS011;9975;48.046;7.804;2022-07-23T07:23:16;10.80;;;9.67;;
19653;SDS011;9975;48.046;7.804;2022-07-23T07:25:42;16.90;;;10.53;;
19653;SDS011;9975;48.046;7.804;2022-07-23T07:28:07;10.63;;;9.60;;
19653;SDS011;9975;48.046;7.804;2022-07-23T07:30:33;9.60;;;8.60;;
19653;SDS011;9975;48.046;7.804;2022-07-23T07:32:59;11.93;;;8.70;;
19653;SDS011;9975;48.046;7.804;2022-07-23T07:35:25;9.43;;;8.50;;
19653;SDS011;9975;48.046;7.804;2022-07-23T07:37:51;10.17;;;8.70;;
19653;SDS011;9975;48.046;7.804;2022-07-23T07:40:16;9.63;;;8.60;;
19653;SDS011;9975;48.046;7.804;2022-07-23T07:42:49;10.10;;;8.77;;
19653;SDS011;9975;48.046;7.804;2022-07-23T07:45:22;9.00;;;7.60;;
19653;SDS011;9975;48.046;7.804;2022-07-23T07:47:49;9.00;;;7.80;;
19653;SDS011;9975;48.046;7.804;2022-07-23T07:50:18;9.93;;;8.87;;
19653;SDS011;9975;48.046;7.804;2022-07-23T07:52:44;9.33;;;8.30;;
19653;SDS011;9975;48.046;7.804;2022-07-23T07:55:10;8.93;;;8.03;;
19653;SDS011;9975;48.046;7.804;2022-07-23T07:57:36;11.90;;;9.13;;
19653;SDS011;9975;48.046;7.804;2022-07-23T08:00:03;10.80;;;9.60;;
19653;SDS011;9975;48.046;7.804;2022-07-23T08:02:38;11.03;;;9.13;;
19653;SDS011;9975;48.046;7.804;2022-07-23T08:05:14;9.30;;;8.40;;
19653;SDS011;9975;48.046;7.804;2022-07-23T08:07:43;11.07;;;8.87;;
19653;SDS011;9975;48.046;7.804;2022-07-23T08:10:09;8.53;;;7.73;;
19653;SDS011;9975;48.046;7.804;2022-07-23T08:12:42;10.07;;;8.13;;
19653;SDS011;9975;48.046;7.804;2022-07-23T08:15:10;13.33;;;7.77;;
19653;SDS011;9975;48.046;7.804;2022-07-23T08:17:37;9.53;;;8.53;;
19653;SDS011;9975;48.046;7.804;2022-07-23T08:20:06;10.33;;;7.90;;
19653;SDS011;9975;48.046;7.804;2022-07-23T08:25:21;11.60;;;8.07;;
19653;SDS011;9975;48.046;7.804;2022-07-23T08:27:48;10.23;;;7.90;;
19653;SDS011;9975;48.046;7.804;2022-07-23T08:30:14;10.20;;;8.63;;
19653;SDS011;9975;48.046;7.804;2022-07-23T08:32:54;12.00;;;8.40;;
19653;SDS011;9975;48.046;7.804;2022-07-23T08:35:27;9.00;;;8.13;;
19653;SDS011;9975;48.046;7.804;2022-07-23T08:37:55;9.70;;;8.70;;
19653;SDS011;9975;48.046;7.804;2022-07-23T08:40:22;8.33;;;7.40;;
19653;SDS011;9975;48.046;7.804;2022-07-23T08:42:49;9.47;;;7.77;;
19653;SDS011;9975;48.046;7.804;2022-07-23T08:45:16;9.50;;;8.60;;
19653;SDS011;9975;48.046;7.804;2022-07-23T08:47:44;9.20;;;8.30;;
19653;SDS011;9975;48.046;7.804;2022-07-23T08:50:10;8.30;;;7.50;;
19653;SDS011;9975;48.046;7.804;2022-07-23T08:52:36;8.33;;;7.53;;
19653;SDS011;9975;48.046;7.804;2022-07-23T08:55:02;8.73;;;7.63;;
19653;SDS011;9975;48.046;7.804;2022-07-23T08:57:29;9.77;;;7.27;;
19653;SDS011;9975;48.046;7.804;2022-07-23T08:59:54;8.40;;;7.03;;
19653;SDS011;9975;48.046;7.804;2022-07-23T09:02:21;9.87;;;7.50;;
19653;SDS011;9975;48.046;7.804;2022-07-23T09:04:46;8.10;;;7.30;;
19653;SDS011;9975;48.046;7.804;2022-07-23T09:07:12;8.70;;;7.90;;
19653;SDS011;9975;48.046;7.804;2022-07-23T09:09:38;8.87;;;7.30;;
19653;SDS011;9975;48.046;7.804;2022-07-23T09:12:08;10.47;;;7.50;;
19653;SDS011;9975;48.046;7.804;2022-07-23T09:14:36;8.40;;;6.80;;
19653;SDS011;9975;48.046;7.804;2022-07-23T09:17:10;9.87;;;7.90;;
19653;SDS011;9975;48.046;7.804;2022-07-23T09:19:36;8.20;;;7.50;;
19653;SDS011;9975;48.046;7.804;2022-07-23T09:22:21;9.47;;;8.03;;
19653;SDS011;9975;48.046;7.804;2022-07-23T09:25:04;7.87;;;6.93;;
19653;SDS011;9975;48.046;7.804;2022-07-23T09:30:25;7.30;;;6.70;;
19653;SDS011;9975;48.046;7.804;2022-07-23T09:33:04;11.93;;;8.27;;
19653;SDS011;9975;48.046;7.804;2022-07-23T09:35:44;9.50;;;8.27;;
19653;SDS011;9975;48.046;7.804;2022-07-23T09:38:10;7.93;;;7.20;;
19653;SDS011;9975;48.046;7.804;2022-07-23T09:40:35;9.40;;;7.57;;
19653;SDS011;9975;48.046;7.804;2022-07-23T09:43:01;9.93;;;8.93;;
19653;SDS011;9975;48.046;7.804;2022-07-23T09:45:26;7.97;;;7.13;;
19653;SDS011;9975;48.046;7.804;2022-07-23T09:47:56;7.50;;;6.73;;
19653;SDS011;9975;48.046;7.804;2022-07-23T09:50:39;7.50;;;6.87;;
19653;SDS011;9975;48.046;7.804;2022-07-23T09:53:05;7.83;;;7.03;;
19653;SDS011;9975;48.046;7.804;2022-07-23T09:55:32;7.90;;;6.90;;
19653;SDS011;9975;48.046;7.804;2022-07-23T09:58:02;7.70;;;7.00;;
19653;SDS011;9975;48.046;7.804;2022-07-23T10:00:30;8.13;;;7.30;;
19653;SDS011;9975;48.046;7.804;2022-07-23T10:02:57;8.53;;;7.60;;
19653;SDS011;9975;48.046;7.804;2022-07-23T10:05:24;8.10;;;7.30;;
19653;SDS011;9975;48.046;7.804;2022-07-23T10:07:50;9.20;;;7.80;;
19653;SDS011;9975;48.046;7.804;2022-07-23T10:10:17;7.80;;;7.10;;
19653;SDS011;9975;48.046;7.804;2022-07-23T10:12:45;8.57;;;7.77;;
19653;SDS011;9975;48.046;7.804;2022-07-23T10:15:17;7.30;;;6.70;;
19653;SDS011;9975;48.046;7.804;2022-07-23T10:17:43;7.10;;;6.50;;
19653;SDS011;9975;48.046;7.804;2022-07-23T10:20:08;9.53;;;7.00;;
19653;SDS011;9975;48.046;7.804;2022-07-23T10:22:35;7.97;;;7.17;;
19653;SDS011;9975;48.046;7.804;2022-07-23T10:28:00;8.00;;;7.20;;
19653;SDS011;9975;48.046;7.804;2022-07-23T10:36:23;7.20;;;6.60;;
19653;SDS011;9975;48.046;7.804;2022-07-23T10:39:15;8.67;;;7.77;;
19653;SDS011;9975;48.046;7.804;2022-07-23T10:41:47;6.97;;;6.37;;
19653;SDS011;9975;48.046;7.804;2022-07-23T10:46:56;7.37;;;6.77;;
19653;SDS011;9975;48.046;7.804;2022-07-23T10:49:36;8.43;;;7.63;;
19653;SDS011;9975;48.046;7.804;2022-07-23T10:54:40;8.27;;;7.57;;
19653;SDS011;9975;48.046;7.804;2022-07-23T10:57:07;7.87;;;7.27;;
19653;SDS011;9975;48.046;7.804;2022-07-23T11:02:39;8.60;;;7.80;;
19653;SDS011;9975;48.046;7.804;2022-07-23T11:05:07;9.30;;;6.50;;
19653;SDS011;9975;48.046;7.804;2022-07-23T11:08:09;7.63;;;6.93;;
19653;SDS011;9975;48.046;7.804;2022-07-23T11:13:45;6.77;;;6.00;;
19653;SDS011;9975;48.046;7.804;2022-07-23T11:23:59;9.40;;;6.33;;
19653;SDS011;9975;48.046;7.804;2022-07-23T11:31:59;7.33;;;6.70;;
19653;SDS011;9975;48.046;7.804;2022-07-23T11:37:10;9.23;;;7.50;;
19653;SDS011;9975;48.046;7.804;2022-07-23T11:39:37;7.70;;;6.70;;
19653;SDS011;9975;48.046;7.804;2022-07-23T11:42:06;9.10;;;6.43;;
19653;SDS011;9975;48.046;7.804;2022-07-23T11:47:02;9.53;;;8.23;;
19653;SDS011;9975;48.046;7.804;2022-07-23T11:49:32;8.63;;;7.93;;
19653;SDS011;9975;48.046;7.804;2022-07-23T11:52:11;8.17;;;7.37;;
19653;SDS011;9975;48.046;7.804;2022-07-23T11:54:48;8.10;;;7.40;;
19653;SDS011;9975;48.046;7.804;2022-07-23T11:57:16;9.13;;;8.10;;
19653;SDS011;9975;48.046;7.804;2022-07-23T11:59:43;8.13;;;7.43;;
19653;SDS011;9975;48.046;7.804;2022-07-23T12:02:12;8.47;;;7.73;;
19653;SDS011;9975;48.046;7.804;2022-07-23T12:07:21;8.13;;;7.50;;
19653;SDS011;9975;48.046;7.804;2022-07-23T12:09:59;8.50;;;7.73;;
19653;SDS011;9975;48.046;7.804;2022-07-23T12:12:34;9.53;;;8.63;;
19653;SDS011;9975;48.046;7.804;2022-07-23T12:15:04;8.60;;;7.80;;
19653;SDS011;9975;48.046;7.804;2022-07-23T12:17:31;9.10;;;8.30;;
19653;SDS011;9975;48.046;7.804;2022-07-23T12:20:01;8.73;;;7.93;;
19653;SDS011;9975;48.046;7.804;2022-07-23T12:22:37;8.47;;;7.77;;
19653;SDS011;9975;48.046;7.804;2022-07-23T12:27:33;8.27;;;7.47;;
19653;SDS011;9975;48.046;7.804;2022-07-23T12:30:14;7.87;;;7.20;;
19653;SDS011;9975;48.046;7.804;2022-07-23T12:32:54;9.07;;;8.17;;
19653;SDS011;9975;48.046;7.804;2022-07-23T12:35:22;7.90;;;7.30;;
19653;SDS011;9975;48.046;7.804;2022-07-23T12:37:59;9.77;;;8.87;;
19653;SDS011;9975;48.046;7.804;2022-07-23T12:46:05;8.07;;;7.40;;
19653;SDS011;9975;48.046;7.804;2022-07-23T12:48:39;9.23;;;8.40;;
19653;SDS011;9975;48.046;7.804;2022-07-23T12:51:19;9.00;;;8.30;;
19653;SDS011;9975;48.046;7.804;2022-07-23T12:53:50;9.23;;;8.00;;
19653;SDS011;9975;48.046;7.804;2022-07-23T12:58:54;9.23;;;8.10;;
19653;SDS011;9975;48.046;7.804;2022-07-23T13:01:29;8.70;;;8.00;;
19653;SDS011;9975;48.046;7.804;2022-07-23T13:09:06;8.73;;;7.93;;
19653;SDS011;9975;48.046;7.804;2022-07-23T13:11:33;9.20;;;8.40;;
19653;SDS011;9975;48.046;7.804;2022-07-23T13:14:00;9.00;;;8.30;;
19653;SDS011;9975;48.046;7.804;2022-07-23T13:16:29;8.77;;;7.87;;
19653;SDS011;9975;48.046;7.804;2022-07-23T13:18:56;9.47;;;8.50;;
19653;SDS011;9975;48.046;7.804;2022-07-23T13:21:23;10.63;;;8.63;;
19653;SDS011;9975;48.046;7.804;2022-07-23T13:23:49;9.07;;;8.27;;
19653;SDS011;9975;48.046;7.804;2022-07-23T13:26:14;9.17;;;8.47;;
19653;SDS011;9975;48.046;7.804;2022-07-23T13:28:40;9.30;;;7.93;;
19653;SDS011;9975;48.046;7.804;2022-07-23T13:31:06;9.60;;;8.80;;
19653;SDS011;9975;48.046;7.804;2022-07-23T13:33:32;9.40;;;8.50;;
19653;SDS011;9975;48.046;7.804;2022-07-23T13:35:58;10.27;;;9.40;;
19653;SDS011;9975;48.046;7.804;2022-07-23T13:38:24;8.70;;;7.80;;
19653;SDS011;9975;48.046;7.804;2022-07-23T13:40:50;9.50;;;8.70;;
19653;SDS011;9975;48.046;7.804;2022-07-23T13:43:17;9.13;;;8.40;;
19653;SDS011;9975;48.046;7.804;2022-07-23T13:45:44;9.43;;;8.63;;
19653;SDS011;9975;48.046;7.804;2022-07-23T13:48:11;9.10;;;8.30;;
19653;SDS011;9975;48.046;7.804;2022-07-23T13:50:38;8.60;;;7.80;;
19653;SDS011;9975;48.046;7.804;2022-07-23T13:53:07;9.33;;;8.43;;
19653;SDS011;9975;48.046;7.804;2022-07-23T13:55:34;9.57;;;8.57;;
19653;SDS011;9975;48.046;7.804;2022-07-23T13:58:01;8.90;;;8.10;;
19653;SDS011;9975;48.046;7.804;2022-07-23T14:00:28;9.47;;;8.57;;
19653;SDS011;9975;48.046;7.804;2022-07-23T14:02:55;8.43;;;7.73;;
19653;SDS011;9975;48.046;7.804;2022-07-23T14:05:21;9.77;;;8.87;;
19653;SDS011;9975;48.046;7.804;2022-07-23T14:07:47;9.60;;;8.60;;
19653;SDS011;9975;48.046;7.804;2022-07-23T14:10:14;8.80;;;8.00;;
19653;SDS011;9975;48.046;7.804;2022-07-23T14:12:42;9.03;;;8.23;;
19653;SDS011;9975;48.046;7.804;2022-07-23T14:15:08;8.90;;;8.17;;
19653;SDS011;9975;48.046;7.804;2022-07-23T14:17:35;9.50;;;8.47;;
19653;SDS011;9975;48.046;7.804;2022-07-23T14:20:02;9.00;;;8.20;;
19653;SDS011;9975;48.046;7.804;2022-07-23T14:22:28;8.70;;;8.00;;
19653;SDS011;9975;48.046;7.804;2022-07-23T14:24:54;9.20;;;8.40;;
19653;SDS011;9975;48.046;7.804;2022-07-23T14:27:22;9.00;;;8.20;;
19653;SDS011;9975;48.046;7.804;2022-07-23T14:29:48;10.20;;;9.37;;
19653;SDS011;9975;48.046;7.804;2022-07-23T14:32:13;8.83;;;7.10;;
19653;SDS011;9975;48.046;7.804;2022-07-23T14:34:39;9.30;;;8.40;;
19653;SDS011;9975;48.046;7.804;2022-07-23T14:37:05;9.40;;;8.27;;
19653;SDS011;9975;48.046;7.804;2022-07-23T14:39:30;10.10;;;9.10;;
19653;SDS011;9975;48.046;7.804;2022-07-23T14:41:56;8.70;;;8.00;;
19653;SDS011;9975;48.046;7.804;2022-07-23T14:44:22;10.63;;;9.70;;
19653;SDS011;9975;48.046;7.804;2022-07-23T14:46:47;8.90;;;8.13;;
19653;SDS011;9975;48.046;7.804;2022-07-23T14:49:14;9.23;;;8.43;;
19653;SDS011;9975;48.046;7.804;2022-07-23T14:51:40;11.83;;;8.03;;
19653;SDS011;9975;48.046;7.804;2022-07-23T14:54:07;8.50;;;7.80;;
19653;SDS011;9975;48.046;7.804;2022-07-23T14:56:33;8.87;;;7.97;;
19653;SDS011;9975;48.046;7.804;2022-07-23T14:58:58;8.93;;;8.10;;
19653;SDS011;9975;48.046;7.804;2022-07-23T15:01:24;8.97;;;8.10;;
19653;SDS011;9975;48.046;7.804;2022-07-23T15:03:50;9.40;;;8.50;;
19653;SDS011;9975;48.046;7.804;2022-07-23T15:06:16;9.17;;;8.37;;
19653;SDS011;9975;48.046;7.804;2022-07-23T15:08:43;8.57;;;7.80;;
19653;SDS011;9975;48.046;7.804;2022-07-23T15:11:09;8.60;;;7.90;;
19653;SDS011;9975;48.046;7.804;2022-07-23T15:13:36;10.30;;;8.30;;
19653;SDS011;9975;48.046;7.804;2022-07-23T15:16:03;10.03;;;9.03;;
19653;SDS011;9975;48.046;7.804;2022-07-23T15:18:29;9.40;;;8.60;;
19653;SDS011;9975;48.046;7.804;2022-07-23T15:20:56;9.27;;;8.50;;
19653;SDS011;9975;48.046;7.804;2022-07-23T15:23:22;10.00;;;9.10;;
19653;SDS011;9975;48.046;7.804;2022-07-23T15:25:48;9.50;;;8.70;;
19653;SDS011;9975;48.046;7.804;2022-07-23T15:28:14;9.43;;;8.47;;
19653;SDS011;9975;48.046;7.804;2022-07-23T15:30:41;7.90;;;7.30;;
19653;SDS011;9975;48.046;7.804;2022-07-23T15:33:08;9.17;;;8.47;;
19653;SDS011;9975;48.046;7.804;2022-07-23T15:35:33;9.43;;;8.53;;
19653;SDS011;9975;48.046;7.804;2022-07-23T15:37:59;8.87;;;8.03;;
19653;SDS011;9975;48.046;7.804;2022-07-23T15:40:25;8.30;;;7.57;;
19653;SDS011;9975;48.046;7.804;2022-07-23T15:42:50;8.53;;;7.83;;
19653;SDS011;9975;48.046;7.804;2022-07-23T15:45:17;9.30;;;8.27;;
19653;SDS011;9975;48.046;7.804;2022-07-23T15:47:43;10.70;;;8.30;;
19653;SDS011;9975;48.046;7.804;2022-07-23T15:50:09;9.40;;;8.63;;
19653;SDS011;9975;48.046;7.804;2022-07-23T15:52:35;8.83;;;8.07;;
19653;SDS011;9975;48.046;7.804;2022-07-23T15:55:01;8.33;;;7.53;;
19653;SDS011;9975;48.046;7.804;2022-07-23T15:57:28;8.17;;;7.47;;
19653;SDS011;9975;48.046;7.804;2022-07-23T15:59:53;9.80;;;8.80;;
19653;SDS011;9975;48.046;7.804;2022-07-23T16:02:21;8.27;;;7.57;;
19653;SDS011;9975;48.046;7.804;2022-07-23T16:04:48;8.70;;;7.97;;
19653;SDS011;9975;48.046;7.804;2022-07-23T16:07:15;8.53;;;7.60;;
19653;SDS011;9975;48.046;7.804;2022-07-23T16:09:42;9.30;;;8.40;;
19653;SDS011;9975;48.046;7.804;2022-07-23T16:12:08;8.47;;;7.77;;
19653;SDS011;9975;48.046;7.804;2022-07-23T16:14:34;8.83;;;7.93;;
19653;SDS011;9975;48.046;7.804;2022-07-23T16:17:00;8.50;;;7.80;;
19653;SDS011;9975;48.046;7.804;2022-07-23T16:19:25;8.70;;;7.80;;
19653;SDS011;9975;48.046;7.804;2022-07-23T16:21:51;7.73;;;7.13;;
19653;SDS011;9975;48.046;7.804;2022-07-23T16:24:17;8.17;;;7.47;;
19653;SDS011;9975;48.046;7.804;2022-07-23T16:26:44;8.97;;;8.10;;
19653;SDS011;9975;48.046;7.804;2022-07-23T16:29:09;8.57;;;7.77;;
19653;SDS011;9975;48.046;7.804;2022-07-23T16:31:36;8.13;;;7.37;;
19653;SDS011;9975;48.046;7.804;2022-07-23T16:34:02;9.13;;;8.27;;
19653;SDS011;9975;48.046;7.804;2022-07-23T16:36:27;8.53;;;7.83;;
19653;SDS011;9975;48.046;7.804;2022-07-23T16:38:53;7.93;;;7.20;;
19653;SDS011;9975;48.046;7.804;2022-07-23T16:41:19;7.20;;;6.60;;
19653;SDS011;9975;48.046;7.804;2022-07-23T16:43:45;8.20;;;7.53;;
19653;SDS011;9975;48.046;7.804;2022-07-23T16:46:11;7.80;;;7.20;;
19653;SDS011;9975;48.046;7.804;2022-07-23T16:48:36;8.00;;;7.30;;
19653;SDS011;9975;48.046;7.804;2022-07-23T16:51:03;14.63;;;9.30;;
19653;SDS011;9975;48.046;7.804;2022-07-23T16:53:28;8.10;;;7.40;;
19653;SDS011;9975;48.046;7.804;2022-07-23T16:55:54;9.37;;;8.47;;
19653;SDS011;9975;48.046;7.804;2022-07-23T16:58:20;7.97;;;7.27;;
19653;SDS011;9975;48.046;7.804;2022-07-23T17:00:45;8.00;;;7.30;;
19653;SDS011;9975;48.046;7.804;2022-07-23T17:03:11;8.80;;;8.00;;
19653;SDS011;9975;48.046;7.804;2022-07-23T17:05:37;9.37;;;8.23;;
19653;SDS011;9975;48.046;7.804;2022-07-23T17:08:03;8.37;;;7.57;;
19653;SDS011;9975;48.046;7.804;2022-07-23T17:10:30;10.20;;;8.30;;
19653;SDS011;9975;48.046;7.804;2022-07-23T17:12:56;8.90;;;8.07;;
19653;SDS011;9975;48.046;7.804;2022-07-23T17:15:23;9.10;;;8.40;;
19653;SDS011;9975;48.046;7.804;2022-07-23T17:17:49;8.40;;;7.00;;
19653;SDS011;9975;48.046;7.804;2022-07-23T17:20:15;7.87;;;7.20;;
19653;SDS011;9975;48.046;7.804;2022-07-23T17:22:41;8.47;;;7.60;;
19653;SDS011;9975;48.046;7.804;2022-07-23T17:25:08;7.90;;;7.20;;
19653;SDS011;9975;48.046;7.804;2022-07-23T17:27:38;9.10;;;8.23;;
19653;SDS011;9975;48.046;7.804;2022-07-23T17:30:07;8.33;;;7.63;;
19653;SDS011;9975;48.046;7.804;2022-07-23T17:32:33;8.70;;;7.90;;
19653;SDS011;9975;48.046;7.804;2022-07-23T17:34:59;7.40;;;6.70;;
19653;SDS011;9975;48.046;7.804;2022-07-23T17:37:25;8.63;;;7.10;;
19653;SDS011;9975;48.046;7.804;2022-07-23T17:39:50;11.70;;;8.00;;
19653;SDS011;9975;48.046;7.804;2022-07-23T17:42:16;8.60;;;7.80;;
19653;SDS011;9975;48.046;7.804;2022-07-23T17:44:41;8.20;;;7.60;;
19653;SDS011;9975;48.046;7.804;2022-07-23T17:47:07;8.20;;;7.40;;
19653;SDS011;9975;48.046;7.804;2022-07-23T17:49:33;9.07;;;8.27;;
19653;SDS011;9975;48.046;7.804;2022-07-23T17:51:59;9.03;;;8.23;;
19653;SDS011;9975;48.046;7.804;2022-07-23T17:54:26;8.67;;;7.90;;
19653;SDS011;9975;48.046;7.804;2022-07-23T17:56:52;8.80;;;8.00;;
19653;SDS011;9975;48.046;7.804;2022-07-23T17:59:17;8.10;;;7.40;;
19653;SDS011;9975;48.046;7.804;2022-07-23T18:01:43;9.93;;;8.93;;
19653;SDS011;9975;48.046;7.804;2022-07-23T18:04:09;8.40;;;7.60;;
19653;SDS011;9975;48.046;7.804;2022-07-23T18:06:38;8.83;;;7.90;;